Kampville Court, Missouri
Current Conditions -  °F | °C
As of 10:54 AM on Saturday 25 Oct 2014 (Local Time) from KSET Reporting Station
Haze Haze  
Wind Chill: 70°   Ceiling: Unl
Heat Index: 70°   Visibility: 5mi
Dew Point: 62°   Wind: 0mph
Humidity: 76%   Direction: NA
Pressure: 30.04"   Gusts: NA
Location:  38.8615°N, 90.4548°W
Report Text: KSET 251554Z AUTO 00000KT 5SM HZ CLR 21/17 A3004 RMK AO2 SLP169 T02110167
Loading
Personal Weather Stations






























Interactive Weather Map
Tropical Storm Tracking
New forecast layout! Learn more

10-Day Weather Forecast

Advertisements
Track Severe Weather on mobile